Terminal Aerodrome Forecast
Issued by NWS

Home | Current Version | Previous Version | Graphics & Text | Print | Product List | Glossary On
Versions: 1 2 3 4 5 6 7 8 9 10 11 12 13 14 15 16 17 18
000
FTUS42 KMHX 291904 AAA
TAFPGV
TAF AMD
KPGV 291904Z 2919/3018 13008KT 6SM SHRA SCT025 BKN100
     FM292100 13005KT 6SM SHRA SCT015 OVC035
     FM300600 13005KT 5SM SHRA VCTS SCT015 OVC025CB
     FM301000 VRB04KT 5SM -RA VCTS BKN012 OVC015CB
     FM301400 10005KT 6SM -SHRA OVC035
      AMD LTD TO CLD VIS AND WIND=

USA.gov is the U.S. government's official web portal to all federal, state and local government web resources and services.